sensor_id;sensor_type;location;lat;lon;timestamp;noise_LAeq;noise_LA_min;noise_LA_max;noise_LA01;noise_LA95
37279;Laerm;7458;49.002;8.472;2022-10-22T00:00:16;43.32;39.99;55.98;;
37279;Laerm;7458;49.002;8.472;2022-10-22T00:02:43;44.32;40.13;49.16;;
37279;Laerm;7458;49.002;8.472;2022-10-22T00:05:09;43.31;39.70;51.21;;
37279;Laerm;7458;49.002;8.472;2022-10-22T00:07:35;43.25;39.34;53.39;;
37279;Laerm;7458;49.002;8.472;2022-10-22T00:10:04;55.18;39.08;76.18;;
37279;Laerm;7458;49.002;8.472;2022-10-22T00:12:30;52.46;39.08;71.11;;
37279;Laerm;7458;49.002;8.472;2022-10-22T00:14:56;43.05;39.08;52.25;;
37279;Laerm;7458;49.002;8.472;2022-10-22T00:17:22;42.79;39.08;48.34;;
37279;Laerm;7458;49.002;8.472;2022-10-22T00:19:48;43.29;37.88;55.91;;
37279;Laerm;7458;49.002;8.472;2022-10-22T00:22:14;42.78;38.05;50.61;;
37279;Laerm;7458;49.002;8.472;2022-10-22T00:24:40;51.62;38.95;69.26;;
37279;Laerm;7458;49.002;8.472;2022-10-22T00:27:08;44.59;39.58;61.06;;
37279;Laerm;7458;49.002;8.472;2022-10-22T00:29:35;44.20;40.53;51.45;;
37279;Laerm;7458;49.002;8.472;2022-10-22T00:32:03;44.56;41.38;49.62;;
37279;Laerm;7458;49.002;8.472;2022-10-22T00:34:30;51.84;42.09;70.90;;
37279;Laerm;7458;49.002;8.472;2022-10-22T00:36:56;44.61;41.38;50.65;;
37279;Laerm;7458;49.002;8.472;2022-10-22T00:39:25;44.82;40.43;50.53;;
37279;Laerm;7458;49.002;8.472;2022-10-22T00:41:53;44.73;41.38;51.26;;
37279;Laerm;7458;49.002;8.472;2022-10-22T00:47:45;44.88;42.47;51.90;;
37279;Laerm;7458;49.002;8.472;2022-10-22T00:50:22;44.61;41.75;51.23;;
37279;Laerm;7458;49.002;8.472;2022-10-22T00:52:49;44.20;40.71;49.57;;
37279;Laerm;7458;49.002;8.472;2022-10-22T00:55:17;43.96;40.23;51.99;;
37279;Laerm;7458;49.002;8.472;2022-10-22T00:57:44;44.25;40.62;54.98;;
37279;Laerm;7458;49.002;8.472;2022-10-22T01:00:11;52.83;41.14;73.50;;
37279;Laerm;7458;49.002;8.472;2022-10-22T01:02:37;43.86;40.62;58.16;;
37279;Laerm;7458;49.002;8.472;2022-10-22T01:05:03;43.71;39.46;53.78;;
37279;Laerm;7458;49.002;8.472;2022-10-22T01:07:29;43.62;40.33;50.85;;
37279;Laerm;7458;49.002;8.472;2022-10-22T01:10:17;43.82;40.53;52.56;;
37279;Laerm;7458;49.002;8.472;2022-10-22T01:13:37;43.80;40.23;62.06;;
37279;Laerm;7458;49.002;8.472;2022-10-22T01:16:20;44.38;40.98;61.16;;
37279;Laerm;7458;49.002;8.472;2022-10-22T01:22:11;53.79;40.53;68.20;;
37279;Laerm;7458;49.002;8.472;2022-10-22T01:25:02;43.26;38.37;52.93;;
37279;Laerm;7458;49.002;8.472;2022-10-22T01:28:00;43.32;40.03;49.23;;
37279;Laerm;7458;49.002;8.472;2022-10-22T01:30:32;44.53;41.14;55.23;;
37279;Laerm;7458;49.002;8.472;2022-10-22T01:33:06;44.14;40.98;56.05;;
37279;Laerm;7458;49.002;8.472;2022-10-22T01:35:39;44.09;40.89;51.06;;
37279;Laerm;7458;49.002;8.472;2022-10-22T01:38:13;44.09;41.14;53.30;;
37279;Laerm;7458;49.002;8.472;2022-10-22T01:40:41;44.70;41.14;55.48;;
37279;Laerm;7458;49.002;8.472;2022-10-22T01:43:09;51.65;42.53;71.13;;
37279;Laerm;7458;49.002;8.472;2022-10-22T01:45:47;50.64;40.98;70.41;;
37279;Laerm;7458;49.002;8.472;2022-10-22T01:48:43;45.27;41.82;52.70;;
37279;Laerm;7458;49.002;8.472;2022-10-22T01:57:17;45.97;42.24;63.52;;
37279;Laerm;7458;49.002;8.472;2022-10-22T02:00:07;45.02;41.46;50.25;;
37279;Laerm;7458;49.002;8.472;2022-10-22T02:07:50;46.02;42.03;64.62;;
37279;Laerm;7458;49.002;8.472;2022-10-22T02:10:18;53.89;40.43;68.68;;
37279;Laerm;7458;49.002;8.472;2022-10-22T02:12:51;45.85;40.71;64.69;;
37279;Laerm;7458;49.002;8.472;2022-10-22T02:15:22;54.90;40.53;68.75;;
37279;Laerm;7458;49.002;8.472;2022-10-22T02:17:53;44.26;40.23;61.14;;
37279;Laerm;7458;49.002;8.472;2022-10-22T02:20:33;44.07;41.06;61.37;;
37279;Laerm;7458;49.002;8.472;2022-10-22T02:23:01;48.79;41.38;66.09;;
37279;Laerm;7458;49.002;8.472;2022-10-22T02:25:40;49.71;41.82;68.71;;
37279;Laerm;7458;49.002;8.472;2022-10-22T02:28:28;45.54;41.53;66.62;;
37279;Laerm;7458;49.002;8.472;2022-10-22T02:31:08;51.25;41.38;71.71;;
37279;Laerm;7458;49.002;8.472;2022-10-22T02:33:44;48.93;41.30;68.15;;
37279;Laerm;7458;49.002;8.472;2022-10-22T02:36:12;55.08;41.89;70.98;;
37279;Laerm;7458;49.002;8.472;2022-10-22T02:38:40;44.45;41.06;54.43;;
37279;Laerm;7458;49.002;8.472;2022-10-22T02:41:08;53.24;41.26;71.27;;
37279;Laerm;7458;49.002;8.472;2022-10-22T02:43:49;43.87;40.80;61.18;;
37279;Laerm;7458;49.002;8.472;2022-10-22T02:46:15;44.09;40.62;52.92;;
37279;Laerm;7458;49.002;8.472;2022-10-22T02:48:41;43.71;39.92;50.10;;
37279;Laerm;7458;49.002;8.472;2022-10-22T02:51:07;44.41;41.06;51.22;;
37279;Laerm;7458;49.002;8.472;2022-10-22T02:53:33;45.11;40.71;58.23;;
37279;Laerm;7458;49.002;8.472;2022-10-22T02:55:59;44.62;40.71;68.49;;
37279;Laerm;7458;49.002;8.472;2022-10-22T02:58:25;44.10;40.62;50.07;;
37279;Laerm;7458;49.002;8.472;2022-10-22T03:00:50;44.07;40.80;49.89;;
37279;Laerm;7458;49.002;8.472;2022-10-22T03:03:16;44.30;40.89;49.63;;
37279;Laerm;7458;49.002;8.472;2022-10-22T03:05:42;53.80;40.98;71.65;;
37279;Laerm;7458;49.002;8.472;2022-10-22T03:08:08;43.80;39.70;50.62;;
37279;Laerm;7458;49.002;8.472;2022-10-22T03:10:33;54.93;40.89;71.09;;
37279;Laerm;7458;49.002;8.472;2022-10-22T03:12:59;43.35;39.81;49.30;;
37279;Laerm;7458;49.002;8.472;2022-10-22T03:15:25;42.85;38.52;49.00;;
37279;Laerm;7458;49.002;8.472;2022-10-22T03:17:51;44.19;39.21;50.53;;
37279;Laerm;7458;49.002;8.472;2022-10-22T03:20:16;43.25;38.67;52.84;;
37279;Laerm;7458;49.002;8.472;2022-10-22T03:22:43;44.30;41.06;55.46;;
37279;Laerm;7458;49.002;8.472;2022-10-22T03:25:21;55.30;41.89;71.33;;
37279;Laerm;7458;49.002;8.472;2022-10-22T03:27:50;47.75;42.59;66.86;;
37279;Laerm;7458;49.002;8.472;2022-10-22T03:30:17;50.37;42.98;69.14;;
37279;Laerm;7458;49.002;8.472;2022-10-22T03:32:43;44.98;41.68;53.69;;
37279;Laerm;7458;49.002;8.472;2022-10-22T03:35:08;44.79;41.30;49.81;;
37279;Laerm;7458;49.002;8.472;2022-10-22T03:37:35;44.70;41.82;49.77;;
37279;Laerm;7458;49.002;8.472;2022-10-22T03:40:04;44.86;41.88;53.91;;
37279;Laerm;7458;49.002;8.472;2022-10-22T03:42:31;52.33;42.35;71.30;;
37279;Laerm;7458;49.002;8.472;2022-10-22T03:44:57;45.00;41.30;52.68;;
37279;Laerm;7458;49.002;8.472;2022-10-22T03:47:23;55.09;42.16;71.21;;
37279;Laerm;7458;49.002;8.472;2022-10-22T03:49:50;55.68;42.88;71.70;;
37279;Laerm;7458;49.002;8.472;2022-10-22T03:52:17;54.49;42.42;71.06;;
37279;Laerm;7458;49.002;8.472;2022-10-22T03:54:43;45.07;42.00;50.47;;
37279;Laerm;7458;49.002;8.472;2022-10-22T03:57:10;51.71;41.82;70.77;;
37279;Laerm;7458;49.002;8.472;2022-10-22T03:59:40;45.53;42.47;52.63;;
37279;Laerm;7458;49.002;8.472;2022-10-22T04:02:07;47.58;42.03;58.80;;
37279;Laerm;7458;49.002;8.472;2022-10-22T04:04:35;45.82;41.53;59.36;;
37279;Laerm;7458;49.002;8.472;2022-10-22T04:07:00;44.66;41.30;52.04;;
37279;Laerm;7458;49.002;8.472;2022-10-22T04:09:26;44.79;42.16;49.94;;
37279;Laerm;7458;49.002;8.472;2022-10-22T04:11:52;45.01;41.38;50.99;;
37279;Laerm;7458;49.002;8.472;2022-10-22T04:14:18;53.34;42.41;71.38;;
37279;Laerm;7458;49.002;8.472;2022-10-22T04:16:43;45.62;42.59;51.92;;
37279;Laerm;7458;49.002;8.472;2022-10-22T04:19:09;50.07;43.29;67.64;;
37279;Laerm;7458;49.002;8.472;2022-10-22T04:21:35;45.40;42.53;50.43;;
37279;Laerm;7458;49.002;8.472;2022-10-22T04:24:01;45.16;42.29;51.31;;
37279;Laerm;7458;49.002;8.472;2022-10-22T04:26:26;55.34;42.47;71.34;;
37279;Laerm;7458;49.002;8.472;2022-10-22T04:28:53;45.81;43.04;57.23;;
37279;Laerm;7458;49.002;8.472;2022-10-22T04:31:22;54.85;43.29;71.27;;
37279;Laerm;7458;49.002;8.472;2022-10-22T04:33:57;45.75;43.19;51.52;;
37279;Laerm;7458;49.002;8.472;2022-10-22T04:36:24;45.53;43.04;50.91;;
37279;Laerm;7458;49.002;8.472;2022-10-22T04:38:59;45.35;42.65;50.57;;
37279;Laerm;7458;49.002;8.472;2022-10-22T04:41:29;45.81;42.69;51.14;;
37279;Laerm;7458;49.002;8.472;2022-10-22T04:43:56;45.43;43.19;51.04;;
37279;Laerm;7458;49.002;8.472;2022-10-22T04:46:24;45.63;42.65;51.03;;
37279;Laerm;7458;49.002;8.472;2022-10-22T04:48:51;51.50;43.14;68.24;;
37279;Laerm;7458;49.002;8.472;2022-10-22T04:51:21;46.31;43.09;53.48;;
37279;Laerm;7458;49.002;8.472;2022-10-22T04:53:47;56.33;43.39;71.61;;
37279;Laerm;7458;49.002;8.472;2022-10-22T04:56:20;55.42;43.63;70.97;;
37279;Laerm;7458;49.002;8.472;2022-10-22T04:59:14;53.43;42.76;71.34;;
37279;Laerm;7458;49.002;8.472;2022-10-22T05:01:42;45.83;42.59;52.86;;
37279;Laerm;7458;49.002;8.472;2022-10-22T05:04:15;45.24;42.53;51.96;;
37279;Laerm;7458;49.002;8.472;2022-10-22T05:06:42;45.60;42.47;55.15;;
37279;Laerm;7458;49.002;8.472;2022-10-22T05:09:16;45.68;42.47;53.67;;
37279;Laerm;7458;49.002;8.472;2022-10-22T05:11:46;45.66;42.65;62.84;;
37279;Laerm;7458;49.002;8.472;2022-10-22T05:14:19;45.01;41.68;52.94;;
37279;Laerm;7458;49.002;8.472;2022-10-22T05:16:46;55.40;41.61;71.49;;
37279;Laerm;7458;49.002;8.472;2022-10-22T05:19:31;51.68;42.41;67.22;;
37279;Laerm;7458;49.002;8.472;2022-10-22T05:22:01;56.52;42.16;71.11;;
37279;Laerm;7458;49.002;8.472;2022-10-22T05:24:29;49.87;42.35;66.88;;
37279;Laerm;7458;49.002;8.472;2022-10-22T05:26:57;54.75;42.65;70.89;;
37279;Laerm;7458;49.002;8.472;2022-10-22T05:29:24;55.17;43.44;71.29;;
37279;Laerm;7458;49.002;8.472;2022-10-22T05:31:50;56.50;43.34;70.90;;
37279;Laerm;7458;49.002;8.472;2022-10-22T05:34:16;56.03;43.72;71.35;;
37279;Laerm;7458;49.002;8.472;2022-10-22T05:36:42;53.86;43.49;71.36;;
37279;Laerm;7458;49.002;8.472;2022-10-22T05:39:08;50.04;43.58;65.80;;
37279;Laerm;7458;49.002;8.472;2022-10-22T05:41:35;56.42;43.09;71.34;;
37279;Laerm;7458;49.002;8.472;2022-10-22T05:44:02;51.54;43.68;70.72;;
37279;Laerm;7458;49.002;8.472;2022-10-22T05:46:33;52.29;43.94;69.54;;
37279;Laerm;7458;49.002;8.472;2022-10-22T05:49:03;49.01;43.29;68.76;;
37279;Laerm;7458;49.002;8.472;2022-10-22T05:51:33;55.91;43.29;71.63;;
37279;Laerm;7458;49.002;8.472;2022-10-22T05:54:01;54.64;43.39;71.27;;
37279;Laerm;7458;49.002;8.472;2022-10-22T05:56:30;53.70;42.88;70.82;;
37279;Laerm;7458;49.002;8.472;2022-10-22T05:58:57;52.53;43.09;69.28;;
37279;Laerm;7458;49.002;8.472;2022-10-22T06:01:27;56.16;43.44;71.05;;
37279;Laerm;7458;49.002;8.472;2022-10-22T06:03:56;46.37;43.29;58.12;;
37279;Laerm;7458;49.002;8.472;2022-10-22T06:06:42;51.52;43.72;69.42;;
37279;Laerm;7458;49.002;8.472;2022-10-22T06:09:26;59.17;43.34;78.64;;
37279;Laerm;7458;49.002;8.472;2022-10-22T06:11:55;57.16;43.24;71.54;;
37279;Laerm;7458;49.002;8.472;2022-10-22T06:14:22;54.85;43.29;74.18;;
37279;Laerm;7458;49.002;8.472;2022-10-22T06:16:49;55.48;42.71;71.32;;
37279;Laerm;7458;49.002;8.472;2022-10-22T06:19:18;56.33;42.53;71.25;;
37279;Laerm;7458;49.002;8.472;2022-10-22T06:21:45;52.85;42.59;69.95;;
37279;Laerm;7458;49.002;8.472;2022-10-22T06:24:11;56.10;42.29;70.94;;
37279;Laerm;7458;49.002;8.472;2022-10-22T06:26:38;51.04;42.53;70.27;;
37279;Laerm;7458;49.002;8.472;2022-10-22T06:29:04;56.68;41.06;72.15;;
37279;Laerm;7458;49.002;8.472;2022-10-22T06:31:33;53.37;42.79;69.05;;
37279;Laerm;7458;49.002;8.472;2022-10-22T06:34:10;51.60;43.39;69.87;;
37279;Laerm;7458;49.002;8.472;2022-10-22T06:36:36;57.53;43.44;73.00;;
37279;Laerm;7458;49.002;8.472;2022-10-22T06:39:03;53.76;43.81;72.39;;
37279;Laerm;7458;49.002;8.472;2022-10-22T06:41:30;54.89;43.44;67.80;;
37279;Laerm;7458;49.002;8.472;2022-10-22T06:43:56;53.76;43.72;70.99;;
37279;Laerm;7458;49.002;8.472;2022-10-22T06:46:23;46.65;43.54;56.86;;
37279;Laerm;7458;49.002;8.472;2022-10-22T06:48:59;54.72;43.49;71.27;;
37279;Laerm;7458;49.002;8.472;2022-10-22T06:51:25;48.73;42.29;72.10;;
37279;Laerm;7458;49.002;8.472;2022-10-22T06:53:53;56.85;42.47;72.11;;
37279;Laerm;7458;49.002;8.472;2022-10-22T06:56:23;56.03;42.76;75.43;;
37279;Laerm;7458;49.002;8.472;2022-10-22T06:58:51;54.47;43.44;73.34;;
37279;Laerm;7458;49.002;8.472;2022-10-22T07:01:22;57.14;42.93;75.35;;
37279;Laerm;7458;49.002;8.472;2022-10-22T07:03:50;46.78;42.88;59.76;;
37279;Laerm;7458;49.002;8.472;2022-10-22T07:06:17;47.91;43.72;58.99;;
37279;Laerm;7458;49.002;8.472;2022-10-22T07:08:43;51.10;44.07;70.28;;
37279;Laerm;7458;49.002;8.472;2022-10-22T07:11:25;56.72;43.81;73.91;;
37279;Laerm;7458;49.002;8.472;2022-10-22T07:13:57;51.91;43.44;67.20;;
37279;Laerm;7458;49.002;8.472;2022-10-22T07:16:23;55.50;43.09;72.54;;
37279;Laerm;7458;49.002;8.472;2022-10-22T07:18:50;55.13;42.47;71.89;;
37279;Laerm;7458;49.002;8.472;2022-10-22T07:21:18;48.66;41.96;71.50;;
37279;Laerm;7458;49.002;8.472;2022-10-22T07:23:45;47.82;41.82;66.29;;
37279;Laerm;7458;49.002;8.472;2022-10-22T07:26:14;48.90;41.96;67.31;;
37279;Laerm;7458;49.002;8.472;2022-10-22T07:28:41;54.83;41.61;71.58;;
37279;Laerm;7458;49.002;8.472;2022-10-22T07:31:10;50.48;41.53;68.75;;
37279;Laerm;7458;49.002;8.472;2022-10-22T07:33:36;56.35;40.98;79.14;;
37279;Laerm;7458;49.002;8.472;2022-10-22T07:36:06;53.22;42.29;69.19;;
37279;Laerm;7458;49.002;8.472;2022-10-22T07:38:32;51.33;41.75;68.10;;
37279;Laerm;7458;49.002;8.472;2022-10-22T07:40:58;56.05;41.30;71.04;;
37279;Laerm;7458;49.002;8.472;2022-10-22T07:43:24;52.65;41.22;69.66;;
37279;Laerm;7458;49.002;8.472;2022-10-22T07:45:50;58.23;42.47;75.78;;
37279;Laerm;7458;49.002;8.472;2022-10-22T07:48:16;52.82;41.38;72.30;;
37279;Laerm;7458;49.002;8.472;2022-10-22T07:50:42;47.85;42.16;62.06;;
37279;Laerm;7458;49.002;8.472;2022-10-22T07:53:08;54.70;41.89;71.61;;
37279;Laerm;7458;49.002;8.472;2022-10-22T07:55:34;51.99;41.89;71.37;;
37279;Laerm;7458;49.002;8.472;2022-10-22T07:58:01;52.88;41.22;71.80;;
37279;Laerm;7458;49.002;8.472;2022-10-22T08:00:26;57.59;43.58;72.39;;
37279;Laerm;7458;49.002;8.472;2022-10-22T08:02:52;52.71;41.14;68.72;;
37279;Laerm;7458;49.002;8.472;2022-10-22T08:05:18;54.70;41.75;69.85;;
37279;Laerm;7458;49.002;8.472;2022-10-22T08:07:44;57.68;42.35;75.83;;
37279;Laerm;7458;49.002;8.472;2022-10-22T08:10:12;50.16;41.38;71.84;;
37279;Laerm;7458;49.002;8.472;2022-10-22T08:12:39;56.74;41.30;73.57;;
37279;Laerm;7458;49.002;8.472;2022-10-22T08:15:05;52.11;40.23;70.88;;
37279;Laerm;7458;49.002;8.472;2022-10-22T08:17:31;51.31;41.89;67.87;;
37279;Laerm;7458;49.002;8.472;2022-10-22T08:19:57;49.30;40.71;69.06;;
37279;Laerm;7458;49.002;8.472;2022-10-22T08:22:23;55.10;41.68;73.60;;
37279;Laerm;7458;49.002;8.472;2022-10-22T08:24:49;50.43;41.38;69.74;;
37279;Laerm;7458;49.002;8.472;2022-10-22T08:27:15;55.24;41.96;71.95;;
37279;Laerm;7458;49.002;8.472;2022-10-22T08:29:40;54.86;43.54;73.09;;
37279;Laerm;7458;49.002;8.472;2022-10-22T08:32:06;51.79;40.71;68.05;;
37279;Laerm;7458;49.002;8.472;2022-10-22T08:34:32;52.26;41.75;67.81;;
37279;Laerm;7458;49.002;8.472;2022-10-22T08:36:58;50.46;41.96;66.43;;
37279;Laerm;7458;49.002;8.472;2022-10-22T08:39:24;52.11;40.43;68.10;;
37279;Laerm;7458;49.002;8.472;2022-10-22T08:49:54;53.95;43.04;69.42;;
37279;Laerm;7458;49.002;8.472;2022-10-22T08:52:21;55.01;43.86;76.80;;
37279;Laerm;7458;49.002;8.472;2022-10-22T08:54:51;51.46;42.88;66.58;;
37279;Laerm;7458;49.002;8.472;2022-10-22T08:57:48;55.41;43.34;73.96;;
37279;Laerm;7458;49.002;8.472;2022-10-22T09:01:03;54.46;42.53;73.54;;
37279;Laerm;7458;49.002;8.472;2022-10-22T09:03:50;52.93;42.93;70.79;;
37279;Laerm;7458;49.002;8.472;2022-10-22T09:06:27;51.43;43.19;66.68;;
37279;Laerm;7458;49.002;8.472;2022-10-22T09:08:56;50.81;43.24;68.60;;
37279;Laerm;7458;49.002;8.472;2022-10-22T09:11:31;49.89;43.24;69.57;;
37279;Laerm;7458;49.002;8.472;2022-10-22T09:13:59;53.16;42.41;71.76;;
37279;Laerm;7458;49.002;8.472;2022-10-22T09:20:16;52.55;44.11;70.27;;
37279;Laerm;7458;49.002;8.472;2022-10-22T09:23:19;54.00;43.89;69.01;;
37279;Laerm;7458;49.002;8.472;2022-10-22T09:25:49;56.01;44.58;70.51;;
37279;Laerm;7458;49.002;8.472;2022-10-22T09:28:16;54.79;43.99;70.32;;
37279;Laerm;7458;49.002;8.472;2022-10-22T09:30:42;55.30;45.30;72.98;;
37279;Laerm;7458;49.002;8.472;2022-10-22T09:33:28;51.63;43.29;65.58;;
37279;Laerm;7458;49.002;8.472;2022-10-22T09:36:00;50.16;43.49;70.33;;
37279;Laerm;7458;49.002;8.472;2022-10-22T09:38:38;52.40;43.04;71.23;;
37279;Laerm;7458;49.002;8.472;2022-10-22T09:41:05;57.36;43.34;76.31;;
37279;Laerm;7458;49.002;8.472;2022-10-22T09:43:32;54.51;44.23;72.75;;
37279;Laerm;7458;49.002;8.472;2022-10-22T09:46:03;53.67;42.82;70.86;;
37279;Laerm;7458;49.002;8.472;2022-10-22T09:48:36;50.22;42.59;67.72;;
37279;Laerm;7458;49.002;8.472;2022-10-22T09:51:21;55.62;42.76;73.62;;
37279;Laerm;7458;49.002;8.472;2022-10-22T09:53:58;54.09;43.90;71.00;;
37279;Laerm;7458;49.002;8.472;2022-10-22T09:56:38;51.23;42.79;69.31;;
37279;Laerm;7458;49.002;8.472;2022-10-22T09:59:17;55.77;45.04;74.42;;
37279;Laerm;7458;49.002;8.472;2022-10-22T10:01:44;57.15;43.81;74.77;;
37279;Laerm;7458;49.002;8.472;2022-10-22T10:04:15;53.96;43.72;70.40;;
37279;Laerm;7458;49.002;8.472;2022-10-22T10:06:43;53.74;43.14;69.42;;
37279;Laerm;7458;49.002;8.472;2022-10-22T10:09:16;53.98;43.54;69.18;;
37279;Laerm;7458;49.002;8.472;2022-10-22T10:11:51;51.65;42.71;73.93;;
37279;Laerm;7458;49.002;8.472;2022-10-22T10:16:59;55.70;43.94;70.17;;
37279;Laerm;7458;49.002;8.472;2022-10-22T10:19:53;53.72;43.24;67.10;;
37279;Laerm;7458;49.002;8.472;2022-10-22T10:31:57;54.12;42.88;69.70;;
37279;Laerm;7458;49.002;8.472;2022-10-22T10:34:45;48.11;42.71;61.73;;
37279;Laerm;7458;49.002;8.472;2022-10-22T10:37:27;54.62;43.39;69.61;;
37279;Laerm;7458;49.002;8.472;2022-10-22T10:40:26;54.47;44.15;71.43;;
37279;Laerm;7458;49.002;8.472;2022-10-22T10:43:24;62.44;43.77;82.23;;
37279;Laerm;7458;49.002;8.472;2022-10-22T10:46:17;59.96;42.59;92.93;;
37279;Laerm;7458;49.002;8.472;2022-10-22T10:49:04;54.99;43.68;72.94;;
37279;Laerm;7458;49.002;8.472;2022-10-22T10:51:53;56.31;42.03;79.80;;
37279;Laerm;7458;49.002;8.472;2022-10-22T11:00:43;56.22;43.90;73.18;;
37279;Laerm;7458;49.002;8.472;2022-10-22T11:03:21;56.49;43.14;72.68;;
37279;Laerm;7458;49.002;8.472;2022-10-22T11:06:02;59.66;42.22;81.24;;
37279;Laerm;7458;49.002;8.472;2022-10-22T11:08:37;60.68;42.76;78.24;;
37279;Laerm;7458;49.002;8.472;2022-10-22T11:11:15;55.67;43.44;69.76;;
37279;Laerm;7458;49.002;8.472;2022-10-22T11:14:10;54.24;42.29;75.12;;
37279;Laerm;7458;49.002;8.472;2022-10-22T11:19:44;52.93;42.71;71.46;;
37279;Laerm;7458;49.002;8.472;2022-10-22T11:22:36;57.65;42.47;73.84;;
37279;Laerm;7458;49.002;8.472;2022-10-22T11:30:17;51.14;42.71;69.31;;
37279;Laerm;7458;49.002;8.472;2022-10-22T11:32:50;57.92;42.58;74.35;;
37279;Laerm;7458;49.002;8.472;2022-10-22T11:35:23;55.75;42.09;70.83;;
37279;Laerm;7458;49.002;8.472;2022-10-22T11:37:53;52.51;43.44;70.64;;
37279;Laerm;7458;49.002;8.472;2022-10-22T11:40:32;55.71;43.49;70.19;;
37279;Laerm;7458;49.002;8.472;2022-10-22T11:44:24;59.19;43.77;76.96;;
37279;Laerm;7458;49.002;8.472;2022-10-22T11:49:15;57.10;43.86;76.62;;
37279;Laerm;7458;49.002;8.472;2022-10-22T11:51:43;56.11;43.04;74.27;;
37279;Laerm;7458;49.002;8.472;2022-10-22T11:54:38;54.13;42.98;69.74;;
37279;Laerm;7458;49.002;8.472;2022-10-22T11:59:59;56.18;43.34;70.36;;
37279;Laerm;7458;49.002;8.472;2022-10-22T12:08:19;50.53;42.82;68.58;;
37279;Laerm;7458;49.002;8.472;2022-10-22T12:10:59;62.56;42.93;84.00;;
37279;Laerm;7458;49.002;8.472;2022-10-22T12:13:33;55.12;43.86;75.36;;
37279;Laerm;7458;49.002;8.472;2022-10-22T12:16:16;54.06;42.88;67.98;;
37279;Laerm;7458;49.002;8.472;2022-10-22T12:18:44;49.49;43.19;63.06;;
37279;Laerm;7458;49.002;8.472;2022-10-22T12:21:15;52.22;41.75;66.59;;
37279;Laerm;7458;49.002;8.472;2022-10-22T12:23:43;57.92;43.86;75.32;;
37279;Laerm;7458;49.002;8.472;2022-10-22T12:26:30;56.76;43.09;75.03;;
37279;Laerm;7458;49.002;8.472;2022-10-22T12:29:10;54.77;42.53;69.06;;
37279;Laerm;7458;49.002;8.472;2022-10-22T12:31:39;47.53;40.71;65.20;;
37279;Laerm;7458;49.002;8.472;2022-10-22T12:34:06;53.27;41.96;68.03;;
37279;Laerm;7458;49.002;8.472;2022-10-22T12:36:34;53.26;41.89;71.77;;
37279;Laerm;7458;49.002;8.472;2022-10-22T12:39:19;55.69;40.98;73.98;;
37279;Laerm;7458;49.002;8.472;2022-10-22T12:41:46;53.06;43.42;70.68;;
37279;Laerm;7458;49.002;8.472;2022-10-22T12:44:17;56.09;42.29;71.82;;
37279;Laerm;7458;49.002;8.472;2022-10-22T12:46:46;62.83;40.89;85.81;;
37279;Laerm;7458;49.002;8.472;2022-10-22T12:49:21;55.37;42.53;73.76;;
37279;Laerm;7458;49.002;8.472;2022-10-22T12:51:48;59.83;40.98;79.54;;
37279;Laerm;7458;49.002;8.472;2022-10-22T12:54:27;58.72;42.09;76.02;;
37279;Laerm;7458;49.002;8.472;2022-10-22T12:56:56;51.83;41.96;65.77;;
37279;Laerm;7458;49.002;8.472;2022-10-22T12:59:33;53.56;41.89;69.04;;
37279;Laerm;7458;49.002;8.472;2022-10-22T13:02:00;53.76;41.61;70.37;;
37279;Laerm;7458;49.002;8.472;2022-10-22T13:04:35;53.19;40.89;74.68;;
37279;Laerm;7458;49.002;8.472;2022-10-22T13:09:55;54.91;41.82;71.80;;
37279;Laerm;7458;49.002;8.472;2022-10-22T13:12:27;54.93;40.80;73.02;;
37279;Laerm;7458;49.002;8.472;2022-10-22T13:18:21;63.58;42.53;86.70;;
37279;Laerm;7458;49.002;8.472;2022-10-22T13:21:01;54.80;42.59;70.66;;
37279;Laerm;7458;49.002;8.472;2022-10-22T13:23:31;53.91;42.59;69.25;;
37279;Laerm;7458;49.002;8.472;2022-10-22T13:26:17;52.16;40.71;70.63;;
37279;Laerm;7458;49.002;8.472;2022-10-22T13:28:52;52.09;41.06;69.48;;
37279;Laerm;7458;49.002;8.472;2022-10-22T13:31:25;52.99;41.30;70.27;;
37279;Laerm;7458;49.002;8.472;2022-10-22T13:33:59;68.39;42.22;86.46;;
37279;Laerm;7458;49.002;8.472;2022-10-22T13:36:26;62.23;41.38;80.89;;
37279;Laerm;7458;49.002;8.472;2022-10-22T13:38:52;54.44;41.06;75.39;;
37279;Laerm;7458;49.002;8.472;2022-10-22T13:41:28;53.16;40.23;72.24;;
37279;Laerm;7458;49.002;8.472;2022-10-22T13:43:57;55.12;40.80;72.52;;
37279;Laerm;7458;49.002;8.472;2022-10-22T13:46:24;52.91;40.43;70.37;;
37279;Laerm;7458;49.002;8.472;2022-10-22T13:48:53;54.47;40.33;71.25;;
37279;Laerm;7458;49.002;8.472;2022-10-22T13:51:26;49.91;40.33;73.59;;
37279;Laerm;7458;49.002;8.472;2022-10-22T13:53:56;54.71;39.58;75.34;;
37279;Laerm;7458;49.002;8.472;2022-10-22T13:56:22;54.34;40.43;71.42;;
37279;Laerm;7458;49.002;8.472;2022-10-22T13:58:49;75.10;42.65;94.88;;
37279;Laerm;7458;49.002;8.472;2022-10-22T14:01:19;51.70;41.22;65.62;;
37279;Laerm;7458;49.002;8.472;2022-10-22T14:03:49;58.18;41.06;72.84;;
37279;Laerm;7458;49.002;8.472;2022-10-22T14:06:17;53.35;43.24;77.50;;
37279;Laerm;7458;49.002;8.472;2022-10-22T14:08:48;61.10;43.34;79.92;;
37279;Laerm;7458;49.002;8.472;2022-10-22T14:11:15;54.82;40.23;70.11;;
37279;Laerm;7458;49.002;8.472;2022-10-22T14:13:42;54.64;40.89;72.05;;
37279;Laerm;7458;49.002;8.472;2022-10-22T14:16:18;54.85;41.48;74.51;;
37279;Laerm;7458;49.002;8.472;2022-10-22T14:18:45;56.08;42.71;77.10;;
37279;Laerm;7458;49.002;8.472;2022-10-22T14:21:13;56.66;41.06;71.32;;
37279;Laerm;7458;49.002;8.472;2022-10-22T14:23:42;55.57;41.53;71.61;;
37279;Laerm;7458;49.002;8.472;2022-10-22T14:26:21;59.73;40.80;78.33;;
37279;Laerm;7458;49.002;8.472;2022-10-22T14:28:48;55.79;42.29;73.66;;
37279;Laerm;7458;49.002;8.472;2022-10-22T14:31:14;56.01;42.41;71.82;;
37279;Laerm;7458;49.002;8.472;2022-10-22T14:33:40;59.00;41.82;84.64;;
37279;Laerm;7458;49.002;8.472;2022-10-22T14:36:09;54.68;42.22;72.20;;
37279;Laerm;7458;49.002;8.472;2022-10-22T14:38:35;57.19;42.09;75.67;;
37279;Laerm;7458;49.002;8.472;2022-10-22T14:41:01;51.06;40.80;68.26;;
37279;Laerm;7458;49.002;8.472;2022-10-22T14:43:29;51.23;40.98;70.50;;
37279;Laerm;7458;49.002;8.472;2022-10-22T14:45:56;60.69;40.71;79.89;;
37279;Laerm;7458;49.002;8.472;2022-10-22T14:48:23;48.55;40.33;67.77;;
37279;Laerm;7458;49.002;8.472;2022-10-22T14:50:49;53.54;40.98;69.87;;
37279;Laerm;7458;49.002;8.472;2022-10-22T14:53:15;55.95;41.22;82.95;;
37279;Laerm;7458;49.002;8.472;2022-10-22T14:55:45;51.37;39.81;70.08;;
37279;Laerm;7458;49.002;8.472;2022-10-22T14:58:12;53.34;39.70;73.95;;
37279;Laerm;7458;49.002;8.472;2022-10-22T15:00:41;57.21;42.22;71.53;;
37279;Laerm;7458;49.002;8.472;2022-10-22T15:03:06;57.42;39.81;76.85;;
37279;Laerm;7458;49.002;8.472;2022-10-22T15:05:32;52.68;39.70;72.71;;
37279;Laerm;7458;49.002;8.472;2022-10-22T15:07:58;53.55;40.80;69.32;;
37279;Laerm;7458;49.002;8.472;2022-10-22T15:10:25;52.48;40.71;74.04;;
37279;Laerm;7458;49.002;8.472;2022-10-22T15:12:51;48.68;39.70;62.57;;
37279;Laerm;7458;49.002;8.472;2022-10-22T15:15:17;47.81;40.43;63.05;;
37279;Laerm;7458;49.002;8.472;2022-10-22T15:17:42;51.51;40.96;70.17;;
37279;Laerm;7458;49.002;8.472;2022-10-22T15:20:08;55.56;39.81;71.67;;
37279;Laerm;7458;49.002;8.472;2022-10-22T15:22:34;53.23;39.92;69.91;;
37279;Laerm;7458;49.002;8.472;2022-10-22T15:25:05;54.24;41.46;69.49;;
37279;Laerm;7458;49.002;8.472;2022-10-22T15:27:32;53.53;38.52;71.22;;
37279;Laerm;7458;49.002;8.472;2022-10-22T15:29:57;54.22;41.06;69.39;;
37279;Laerm;7458;49.002;8.472;2022-10-22T15:32:27;57.59;40.33;77.77;;